createdAt,value
2019-03-03T00:01:10.018Z,88.76
2019-03-03T00:03:39.273Z,88.54
2019-03-03T00:06:08.500Z,88.30
2019-03-03T00:08:38.020Z,87.94
2019-03-03T00:11:07.283Z,87.75
2019-03-03T00:13:36.556Z,87.77
2019-03-03T00:16:06.053Z,87.85
2019-03-03T00:18:35.332Z,88.05
2019-03-03T00:21:04.566Z,88.30
2019-03-03T00:23:33.879Z,88.33
2019-03-03T00:26:03.593Z,88.53
2019-03-03T00:28:32.837Z,88.66
2019-03-03T00:31:02.090Z,89.16
2019-03-03T00:33:31.340Z,89.58
2019-03-03T00:36:00.560Z,90.19
2019-03-03T00:38:39.118Z,90.43
2019-03-03T00:41:22.856Z,90.85
2019-03-03T00:44:08.037Z,90.74
2019-03-03T00:46:52.481Z,90.81
2019-03-03T00:49:34.038Z,90.84
2019-03-03T00:52:30.840Z,90.94
2019-03-03T00:55:10.068Z,90.89
2019-03-03T00:58:02.457Z,91.01
2019-03-03T01:00:54.755Z,91.30
2019-03-03T01:03:48.924Z,91.45
2019-03-03T01:06:46.083Z,91.69
2019-03-03T01:09:51.570Z,91.83
2019-03-03T01:12:38.522Z,91.80
2019-03-03T01:15:16.221Z,91.70
2019-03-03T01:18:16.448Z,91.88
2019-03-03T01:21:10.574Z,92.01
2019-03-03T01:23:47.785Z,91.93
2019-03-03T01:26:17.034Z,91.80
2019-03-03T01:28:46.285Z,91.84
2019-03-03T01:31:15.538Z,91.76
2019-03-03T01:33:44.769Z,91.92
2019-03-03T01:36:14.156Z,91.81
2019-03-03T01:38:43.390Z,91.59
2019-03-03T01:41:12.650Z,91.59
2019-03-03T01:43:41.872Z,91.37
2019-03-03T01:46:11.158Z,91.42
2019-03-03T01:48:40.494Z,91.06
2019-03-03T01:51:09.805Z,91.12
2019-03-03T01:53:39.023Z,91.08
2019-03-03T01:56:08.282Z,91.34
2019-03-03T01:58:37.521Z,91.31
2019-03-03T02:01:06.818Z,91.34
2019-03-03T02:03:36.469Z,91.47
2019-03-03T02:06:06.914Z,91.47
2019-03-03T02:08:36.142Z,91.54
2019-03-03T02:11:05.625Z,91.58
2019-03-03T02:13:36.962Z,91.78
2019-03-03T02:16:09.573Z,91.91
2019-03-03T02:18:38.798Z,92.35
2019-03-03T02:21:08.101Z,92.72
2019-03-03T02:23:37.346Z,92.78
2019-03-03T02:26:06.585Z,93.01
2019-03-03T02:28:35.879Z,93.24
2019-03-03T02:31:05.174Z,93.17
2019-03-03T02:33:34.416Z,92.87
2019-03-03T02:36:03.654Z,92.80
2019-03-03T02:38:32.973Z,92.50
2019-03-03T02:41:02.235Z,92.34
2019-03-03T02:43:38.927Z,92.37
2019-03-03T02:46:08.158Z,92.27
2019-03-03T02:48:37.407Z,92.40
2019-03-03T02:51:06.694Z,92.55
2019-03-03T02:53:35.914Z,92.91
2019-03-03T02:56:05.177Z,93.07
2019-03-03T02:58:34.404Z,93.29
2019-03-03T03:01:21.241Z,93.35
2019-03-03T03:03:50.491Z,93.31
2019-03-03T03:06:27.627Z,93.18
2019-03-03T03:09:14.687Z,93.43
2019-03-03T03:12:11.934Z,93.69
2019-03-03T03:14:52.818Z,93.65
2019-03-03T03:17:43.942Z,93.35
2019-03-03T03:20:26.436Z,93.08
2019-03-03T03:23:04.418Z,92.76
2019-03-03T03:26:04.653Z,92.64
2019-03-03T03:28:41.692Z,92.68
2019-03-03T03:31:24.916Z,92.62
2019-03-03T03:34:25.321Z,92.33
2019-03-03T03:37:04.902Z,92.25
2019-03-03T03:39:40.189Z,91.94
2019-03-03T03:42:37.736Z,91.46
2019-03-03T03:45:21.786Z,91.10
2019-03-03T03:48:12.845Z,90.93
2019-03-03T03:51:08.912Z,90.79
2019-03-03T03:53:57.120Z,90.47
2019-03-03T03:56:51.654Z,90.14
2019-03-03T03:59:32.352Z,90.11
2019-03-03T04:02:19.945Z,89.44
2019-03-03T04:05:06.872Z,89.52
2019-03-03T04:07:42.568Z,89.32
2019-03-03T04:10:20.405Z,89.42
2019-03-03T04:13:17.213Z,89.40
2019-03-03T04:16:03.945Z,89.51
2019-03-03T04:18:52.168Z,89.53
2019-03-03T04:21:38.935Z,89.31
2019-03-03T04:24:42.399Z,88.97
2019-03-03T04:27:33.435Z,88.74
2019-03-03T04:30:30.498Z,88.53
2019-03-03T04:33:06.975Z,88.69
2019-03-03T04:35:55.328Z,88.55
2019-03-03T04:38:44.455Z,88.51
2019-03-03T04:41:24.824Z,88.42
2019-03-03T04:44:18.920Z,88.34
2019-03-03T04:47:16.133Z,87.99
2019-03-03T04:50:14.659Z,88.59
2019-03-03T04:52:55.949Z,88.57
2019-03-03T04:55:59.245Z,89.45
2019-03-03T04:58:46.020Z,89.53
2019-03-03T05:01:32.734Z,89.77
2019-03-03T05:04:11.508Z,90.04
2019-03-03T05:07:02.261Z,90.09
2019-03-03T05:09:49.226Z,90.07
2019-03-03T05:12:47.356Z,90.14
2019-03-03T05:15:51.795Z,90.07
2019-03-03T05:18:37.657Z,89.83
2019-03-03T05:21:06.884Z,89.71
2019-03-03T05:23:36.133Z,89.79
2019-03-03T05:26:07.365Z,89.89
2019-03-03T05:28:36.654Z,89.66
2019-03-03T05:31:05.903Z,89.35
2019-03-03T05:33:35.187Z,89.54
2019-03-03T05:36:04.446Z,89.63
2019-03-03T05:38:33.747Z,89.50
2019-03-03T05:41:03.019Z,89.51
2019-03-03T05:43:32.257Z,89.36
2019-03-03T05:46:01.504Z,89.25
2019-03-03T05:48:30.721Z,89.08
2019-03-03T05:51:00.097Z,88.67
2019-03-03T05:53:29.339Z,88.70
2019-03-03T05:55:58.631Z,88.70
2019-03-03T05:58:27.889Z,88.51
2019-03-03T06:00:57.142Z,88.35
2019-03-03T06:03:26.432Z,88.22
2019-03-03T06:05:56.246Z,88.18
2019-03-03T06:08:25.492Z,88.20
2019-03-03T06:10:54.785Z,88.29
2019-03-03T06:13:24.748Z,88.07
2019-03-03T06:15:53.992Z,87.89
2019-03-03T06:18:23.539Z,87.87
2019-03-03T06:20:52.791Z,87.56
2019-03-03T06:23:22.046Z,87.55
2019-03-03T06:25:51.398Z,87.69
2019-03-03T06:28:20.667Z,87.75
2019-03-03T06:30:50.061Z,87.38
2019-03-03T06:33:19.296Z,87.23
2019-03-03T06:35:48.539Z,87.09
2019-03-03T06:38:17.788Z,86.81
2019-03-03T06:40:47.053Z,86.51
2019-03-03T06:43:16.265Z,86.04
2019-03-03T06:45:45.596Z,85.56
2019-03-03T06:48:14.840Z,85.22
2019-03-03T06:50:44.087Z,84.90
2019-03-03T06:53:13.588Z,83.54
2019-03-03T06:55:42.858Z,83.32
2019-03-03T06:58:12.160Z,82.89
2019-03-03T07:00:41.623Z,82.22
2019-03-03T07:03:10.902Z,81.90
2019-03-03T07:05:40.144Z,82.26
2019-03-03T07:08:09.403Z,81.89
2019-03-03T07:10:38.703Z,81.49
2019-03-03T07:13:08.292Z,81.14
2019-03-03T07:15:37.536Z,80.53
2019-03-03T07:18:06.760Z,79.69
2019-03-03T07:20:36.042Z,79.60
2019-03-03T07:23:05.280Z,78.93
2019-03-03T07:25:34.546Z,78.64
2019-03-03T07:28:04.091Z,78.71
2019-03-03T07:30:33.363Z,78.63
2019-03-03T07:33:13.783Z,78.33
2019-03-03T07:35:43.220Z,77.72
2019-03-03T07:38:12.469Z,78.04
2019-03-03T07:40:42.145Z,77.94
2019-03-03T07:43:11.388Z,77.75
2019-03-03T07:45:40.623Z,76.99
2019-03-03T07:48:09.884Z,76.21
2019-03-03T07:50:39.111Z,75.89
2019-03-03T07:53:08.429Z,75.61
2019-03-03T07:55:37.660Z,75.52
2019-03-03T07:58:06.906Z,75.25
2019-03-03T08:00:36.896Z,74.67
2019-03-03T08:03:06.153Z,73.90
2019-03-03T08:05:35.401Z,72.99
2019-03-03T08:08:04.660Z,72.59
2019-03-03T08:10:33.940Z,73.85
2019-03-03T08:13:09.160Z,72.01
2019-03-03T08:15:36.450Z,69.59
2019-03-03T08:18:05.791Z,68.08
2019-03-03T08:20:35.051Z,68.15
2019-03-03T08:23:04.830Z,68.09
2019-03-03T08:25:34.077Z,67.74
2019-03-03T08:28:03.351Z,68.79
2019-03-03T08:30:32.586Z,67.58
2019-03-03T08:33:01.842Z,66.70
2019-03-03T08:35:31.087Z,67.47
2019-03-03T08:38:00.330Z,68.70
2019-03-03T08:40:29.559Z,68.82
2019-03-03T08:43:12.583Z,69.23
2019-03-03T08:45:51.270Z,69.00
2019-03-03T08:48:27.399Z,69.28
2019-03-03T08:51:21.491Z,70.35
2019-03-03T08:54:15.647Z,69.22
2019-03-03T08:57:03.870Z,70.22
2019-03-03T08:59:55.746Z,68.21
2019-03-03T09:02:42.787Z,68.35
2019-03-03T09:05:31.159Z,68.44
2019-03-03T09:08:18.083Z,69.33
2019-03-03T09:11:04.942Z,68.47
2019-03-03T09:13:49.391Z,67.77
2019-03-03T09:16:30.453Z,67.24
2019-03-03T09:19:24.573Z,64.95
2019-03-03T09:22:18.564Z,63.20
2019-03-03T09:25:07.691Z,59.74
2019-03-03T09:27:57.246Z,55.29
2019-03-03T09:30:51.324Z,50.72
2019-03-03T09:33:39.514Z,44.75
2019-03-03T09:36:26.273Z,41.43
2019-03-03T09:39:20.002Z,40.71
2019-03-03T09:41:59.167Z,42.22
2019-03-03T09:45:02.497Z,39.53
2019-03-03T09:47:53.270Z,38.11
2019-03-03T09:50:44.360Z,36.31
2019-03-03T09:53:25.071Z,37.67
2019-03-03T09:56:04.688Z,41.79
2019-03-03T09:59:04.999Z,45.21
2019-03-03T10:01:55.611Z,47.23
2019-03-03T10:04:36.104Z,46.45
2019-03-03T10:07:29.754Z,44.09
2019-03-03T10:10:30.032Z,41.66
2019-03-03T10:13:06.130Z,45.69
2019-03-03T10:15:46.077Z,45.11
2019-03-03T10:18:34.561Z,48.59
2019-03-03T10:21:18.473Z,49.74
2019-03-03T10:23:59.791Z,49.98
2019-03-03T10:27:00.047Z,49.31
2019-03-03T10:29:46.918Z,50.48
2019-03-03T10:32:31.530Z,50.83
2019-03-03T10:35:19.856Z,52.22
2019-03-03T10:38:16.968Z,53.07
2019-03-03T10:40:53.953Z,51.63
2019-03-03T10:43:32.911Z,55.61
2019-03-03T10:46:33.091Z,54.20
2019-03-03T10:49:27.507Z,55.90
2019-03-03T10:52:17.429Z,57.14
2019-03-03T10:54:54.529Z,57.76
2019-03-03T10:57:38.690Z,57.02
2019-03-03T11:00:44.108Z,57.17
2019-03-03T11:03:23.352Z,56.73
2019-03-03T11:06:20.612Z,58.12
2019-03-03T11:09:08.808Z,57.98
2019-03-03T11:11:59.740Z,58.65
2019-03-03T11:14:38.974Z,59.52
2019-03-03T11:17:25.656Z,58.64
2019-03-03T11:20:13.859Z,58.70
2019-03-03T11:23:02.229Z,58.12
2019-03-03T11:25:53.562Z,56.43
2019-03-03T11:28:40.463Z,57.74
2019-03-03T11:31:25.217Z,57.71
2019-03-03T11:34:16.427Z,57.66
2019-03-03T11:36:53.712Z,57.83
2019-03-03T11:39:40.590Z,58.07
2019-03-03T11:42:22.584Z,58.21
2019-03-03T11:45:26.333Z,57.64
2019-03-03T11:48:04.597Z,57.41
2019-03-03T11:50:46.229Z,56.54
2019-03-03T11:53:52.603Z,57.29
2019-03-03T11:56:29.269Z,56.87
2019-03-03T11:59:32.532Z,55.53
2019-03-03T12:02:20.739Z,57.02
2019-03-03T12:05:09.792Z,56.81
2019-03-03T12:08:05.490Z,56.03
2019-03-03T12:11:02.757Z,57.66
2019-03-03T12:13:41.133Z,57.90
2019-03-03T12:16:44.387Z,56.79
2019-03-03T12:19:44.399Z,57.18
2019-03-03T12:22:31.319Z,56.47
2019-03-03T12:25:15.192Z,56.26
2019-03-03T12:28:02.403Z,55.53
2019-03-03T12:30:48.752Z,55.06
2019-03-03T12:33:35.776Z,55.30
2019-03-03T12:36:19.879Z,55.84
2019-03-03T12:39:07.433Z,56.32
2019-03-03T12:42:03.643Z,55.12
2019-03-03T12:44:47.536Z,54.67
2019-03-03T12:47:41.840Z,55.76
2019-03-03T12:50:30.045Z,54.13
2019-03-03T12:53:18.232Z,55.50
2019-03-03T12:55:58.597Z,56.14
2019-03-03T12:58:46.793Z,54.72
2019-03-03T13:01:38.411Z,56.37
2019-03-03T13:04:44.668Z,55.31
2019-03-03T13:07:35.299Z,56.28
2019-03-03T13:10:17.137Z,53.91
2019-03-03T13:13:04.075Z,54.42
2019-03-03T13:16:04.566Z,54.79
2019-03-03T13:19:01.730Z,54.15
2019-03-03T13:21:51.536Z,54.46
2019-03-03T13:24:30.161Z,54.72
2019-03-03T13:27:24.161Z,54.27
2019-03-03T13:30:05.435Z,55.03
2019-03-03T13:33:09.311Z,55.38
2019-03-03T13:36:03.412Z,53.79
2019-03-03T13:38:51.645Z,52.35
2019-03-03T13:41:38.329Z,51.47
2019-03-03T13:44:07.605Z,50.58
2019-03-03T13:46:36.851Z,48.92
2019-03-03T13:49:06.135Z,51.24
2019-03-03T13:51:35.379Z,46.71
2019-03-03T13:54:06.480Z,48.59
2019-03-03T13:56:35.894Z,48.60
2019-03-03T13:59:05.470Z,48.01
2019-03-03T14:01:34.708Z,50.21
2019-03-03T14:04:03.997Z,49.99
2019-03-03T14:06:33.337Z,50.88
2019-03-03T14:09:02.634Z,51.76
2019-03-03T14:11:32.137Z,51.22
2019-03-03T14:14:01.658Z,52.04
2019-03-03T14:16:31.114Z,51.55
2019-03-03T14:19:00.393Z,50.73
2019-03-03T14:21:29.639Z,50.93
2019-03-03T14:23:58.918Z,51.60
2019-03-03T14:26:28.188Z,50.00
2019-03-03T14:28:57.446Z,50.89
2019-03-03T14:31:26.994Z,49.90
2019-03-03T14:33:56.264Z,50.49
2019-03-03T14:36:25.517Z,51.17
2019-03-03T14:38:54.929Z,51.91
2019-03-03T14:41:24.136Z,51.85
2019-03-03T14:43:53.368Z,52.72
2019-03-03T14:46:23.129Z,54.60
2019-03-03T14:48:52.439Z,54.48
2019-03-03T14:51:21.974Z,54.04
2019-03-03T14:53:51.241Z,53.63
2019-03-03T14:56:20.634Z,54.45
2019-03-03T14:58:49.961Z,53.94
2019-03-03T15:01:19.221Z,54.62
2019-03-03T15:03:48.455Z,55.04
2019-03-03T15:06:24.406Z,54.69
2019-03-03T15:08:48.700Z,56.30
2019-03-03T15:11:18.018Z,56.61
2019-03-03T15:13:47.262Z,55.77
2019-03-03T15:16:19.013Z,53.84
2019-03-03T15:18:49.120Z,54.34
2019-03-03T15:21:25.044Z,55.10
2019-03-03T15:23:49.411Z,55.36
2019-03-03T15:26:19.223Z,55.00
2019-03-03T15:28:48.482Z,54.78
2019-03-03T15:31:17.772Z,55.81
2019-03-03T15:33:47.014Z,55.58
2019-03-03T15:36:16.291Z,55.78
2019-03-03T15:38:45.574Z,55.89
2019-03-03T15:41:14.841Z,55.32
2019-03-03T15:43:44.111Z,55.26
2019-03-03T15:46:13.405Z,56.04
2019-03-03T15:48:42.641Z,56.43
2019-03-03T15:51:11.997Z,56.44
2019-03-03T15:53:41.225Z,56.13
2019-03-03T15:56:10.476Z,55.89
2019-03-03T15:58:39.705Z,56.33
2019-03-03T16:01:14.702Z,56.90
2019-03-03T16:03:43.956Z,57.17
2019-03-03T16:06:13.201Z,56.91
2019-03-03T16:08:42.428Z,57.24
2019-03-03T16:11:12.009Z,57.22
2019-03-03T16:13:41.246Z,57.32
2019-03-03T16:16:11.502Z,57.60
2019-03-03T16:18:40.748Z,57.56
2019-03-03T16:21:10.040Z,57.15
2019-03-03T16:23:39.256Z,57.86
2019-03-03T16:26:08.521Z,58.27
2019-03-03T16:28:37.796Z,58.15
2019-03-03T16:31:07.111Z,58.40
2019-03-03T16:33:36.390Z,58.62
2019-03-03T16:36:06.048Z,59.05
2019-03-03T16:38:35.302Z,59.70
2019-03-03T16:41:04.555Z,60.19
2019-03-03T16:43:33.789Z,60.29
2019-03-03T16:46:03.046Z,60.55
2019-03-03T16:48:32.311Z,60.27
2019-03-03T16:51:01.542Z,60.04
2019-03-03T16:53:30.964Z,60.69
2019-03-03T16:56:00.324Z,61.81
2019-03-03T16:58:29.960Z,62.23
2019-03-03T17:00:59.187Z,62.51
2019-03-03T17:03:28.633Z,62.07
2019-03-03T17:05:57.990Z,61.21
2019-03-03T17:08:27.518Z,61.82
2019-03-03T17:10:57.217Z,61.41
2019-03-03T17:13:26.824Z,60.92
2019-03-03T17:15:56.056Z,60.69
2019-03-03T17:18:25.301Z,60.42
2019-03-03T17:20:54.548Z,60.15
2019-03-03T17:23:23.881Z,60.00
2019-03-03T17:25:53.177Z,59.65
2019-03-03T17:28:22.501Z,59.60
2019-03-03T17:30:51.722Z,59.69
2019-03-03T17:33:21.679Z,59.87
2019-03-03T17:35:50.921Z,60.16
2019-03-03T17:38:20.192Z,60.37
2019-03-03T17:40:49.464Z,60.92
2019-03-03T17:43:18.713Z,61.93
2019-03-03T17:45:47.992Z,62.99
2019-03-03T17:48:17.324Z,62.93
2019-03-03T17:50:46.512Z,63.35
2019-03-03T17:53:15.755Z,64.11
2019-03-03T17:55:45.330Z,64.64
2019-03-03T17:58:14.684Z,65.22
2019-03-03T18:00:45.223Z,65.78
2019-03-03T18:03:14.453Z,66.23
2019-03-03T18:05:43.732Z,66.74
2019-03-03T18:08:12.961Z,67.16
2019-03-03T18:10:42.232Z,67.77
2019-03-03T18:13:11.454Z,68.01
2019-03-03T18:15:40.755Z,68.36
2019-03-03T18:18:09.980Z,68.98
2019-03-03T18:20:39.335Z,69.34
2019-03-03T18:23:08.601Z,69.85
2019-03-03T18:25:37.856Z,70.19
2019-03-03T18:28:07.089Z,70.45
2019-03-03T18:30:36.366Z,70.68
2019-03-03T18:33:05.597Z,70.57
2019-03-03T18:35:34.835Z,70.91
2019-03-03T18:38:04.348Z,71.02
2019-03-03T18:40:33.586Z,70.81
2019-03-03T18:43:03.020Z,70.91
2019-03-03T18:45:32.337Z,70.78
2019-03-03T18:48:01.556Z,70.84
2019-03-03T18:50:30.797Z,71.37
2019-03-03T18:53:00.286Z,71.76
2019-03-03T18:55:29.754Z,72.40
2019-03-03T18:57:58.976Z,72.86
2019-03-03T19:00:28.753Z,72.73
2019-03-03T19:02:58.495Z,72.74
2019-03-03T19:05:28.077Z,72.86
2019-03-03T19:07:57.298Z,73.43
2019-03-03T19:10:26.822Z,74.12
2019-03-03T19:12:56.278Z,74.49
2019-03-03T19:15:25.728Z,74.65
2019-03-03T19:17:54.970Z,74.97
2019-03-03T19:20:24.205Z,74.83
2019-03-03T19:22:53.434Z,74.67
2019-03-03T19:25:22.703Z,74.57
2019-03-03T19:27:51.939Z,74.25
2019-03-03T19:30:22.831Z,74.03
2019-03-03T19:33:05.047Z,73.95
2019-03-03T19:35:34.282Z,73.82
2019-03-03T19:38:03.508Z,73.78
2019-03-03T19:40:32.868Z,73.61
2019-03-03T19:43:02.097Z,73.48
2019-03-03T19:45:32.988Z,73.64
2019-03-03T19:48:02.227Z,73.50
2019-03-03T19:50:31.904Z,73.61
2019-03-03T19:53:01.421Z,73.41
2019-03-03T19:55:30.680Z,73.68
2019-03-03T19:57:59.900Z,73.86
2019-03-03T20:00:35.327Z,73.87
2019-03-03T20:03:02.486Z,74.47
2019-03-03T20:05:31.777Z,74.51
2019-03-03T20:08:01.000Z,74.47
2019-03-03T20:10:30.304Z,74.39
2019-03-03T20:12:59.526Z,74.59
2019-03-03T20:15:28.788Z,74.60
2019-03-03T20:17:58.037Z,74.50
2019-03-03T20:20:27.259Z,74.55
2019-03-03T20:22:56.507Z,74.75
2019-03-03T20:25:26.424Z,74.61
2019-03-03T20:27:55.663Z,74.58
2019-03-03T20:30:25.268Z,74.60
2019-03-03T20:32:54.533Z,74.95
2019-03-03T20:35:24.591Z,75.05
2019-03-03T20:37:53.836Z,75.41
2019-03-03T20:40:23.129Z,75.47
2019-03-03T20:42:52.427Z,75.50
2019-03-03T20:45:22.929Z,75.60
2019-03-03T20:47:52.184Z,75.59
2019-03-03T20:50:21.970Z,75.64
2019-03-03T20:52:51.326Z,76.05
2019-03-03T20:55:20.896Z,76.35
2019-03-03T20:57:50.153Z,76.83
2019-03-03T21:00:21.199Z,77.19
2019-03-03T21:02:50.493Z,77.33
2019-03-03T21:05:19.811Z,77.52
2019-03-03T21:07:51.704Z,77.37
2019-03-03T21:10:21.399Z,77.49
2019-03-03T21:12:50.676Z,77.83
2019-03-03T21:15:19.883Z,77.72
2019-03-03T21:17:49.123Z,77.77
2019-03-03T21:20:18.969Z,77.94
2019-03-03T21:22:48.256Z,78.39
2019-03-03T21:25:17.687Z,78.55
2019-03-03T21:27:48.954Z,78.46
2019-03-03T21:30:19.944Z,78.24
2019-03-03T21:32:49.418Z,78.90
2019-03-03T21:35:18.734Z,79.08
2019-03-03T21:37:48.042Z,79.24
2019-03-03T21:40:18.460Z,79.34
2019-03-03T21:42:47.747Z,79.84
2019-03-03T21:45:18.240Z,79.85
2019-03-03T21:47:47.495Z,79.73
2019-03-03T21:50:18.401Z,79.19
2019-03-03T21:52:47.636Z,79.05
2019-03-03T21:55:16.889Z,78.83
2019-03-03T21:57:47.549Z,78.57
2019-03-03T22:00:28.535Z,78.14
2019-03-03T22:02:58.032Z,77.96
2019-03-03T22:05:27.581Z,77.81
2019-03-03T22:07:56.871Z,77.76
2019-03-03T22:10:35.044Z,77.72
2019-03-03T22:13:06.415Z,77.56
2019-03-03T22:15:35.927Z,77.53
2019-03-03T22:18:05.508Z,77.46
2019-03-03T22:20:34.783Z,77.46
2019-03-03T22:23:04.459Z,77.44
2019-03-03T22:25:33.682Z,77.60
2019-03-03T22:28:02.943Z,77.84
2019-03-03T22:30:32.189Z,77.79
2019-03-03T22:33:01.423Z,77.63
2019-03-03T22:35:30.647Z,77.86
2019-03-03T22:37:59.895Z,77.76
2019-03-03T22:40:31.350Z,77.61
2019-03-03T22:43:00.590Z,77.39
2019-03-03T22:45:29.823Z,77.42
2019-03-03T22:47:59.127Z,77.74
2019-03-03T22:50:28.342Z,77.82
2019-03-03T22:52:57.618Z,77.61
2019-03-03T22:55:26.847Z,77.68
2019-03-03T22:57:56.090Z,77.61
2019-03-03T23:00:45.110Z,77.60
2019-03-03T23:03:17.355Z,77.63
2019-03-03T23:05:55.586Z,77.93
2019-03-03T23:08:30.442Z,78.04
2019-03-03T23:11:37.021Z,77.89
2019-03-03T23:14:28.972Z,78.12
2019-03-03T23:17:39.472Z,78.81
2019-03-03T23:20:20.101Z,78.55
2019-03-03T23:23:20.935Z,78.33
2019-03-03T23:25:51.644Z,78.44
2019-03-03T23:28:22.182Z,78.42
2019-03-03T23:30:52.300Z,78.87
2019-03-03T23:33:21.526Z,79.04
2019-03-03T23:35:51.320Z,78.97
2019-03-03T23:38:20.629Z,78.83
2019-03-03T23:40:49.886Z,78.70
2019-03-03T23:43:19.307Z,78.64
2019-03-03T23:45:48.847Z,78.36
2019-03-03T23:48:18.095Z,78.35
2019-03-03T23:50:47.672Z,78.28
2019-03-03T23:53:16.901Z,78.24
2019-03-03T23:55:46.147Z,78.05
2019-03-03T23:58:17.385Z,77.83
